Time;durP1;ratioP1;P1;durP2;ratioP2;P2;SDS_P1;SDS_P2;PMS_P1;PMS_P2;Temp;Humidity;BMP_temperature;BMP_pressure;BME280_temperature;BME280_humidity;BME280_pressure;Samples;Min_cycle;Max_cycle;Signal;HPM_P1;HPM_P2
2021/05/01 00:01:52;;;;;;;39.93;31.10;;;8.30;99.90;;;;;;5056167;28;20194;-79
2021/05/01 00:04:18;;;;;;;44.10;30.10;;;8.30;99.90;;;;;;5056227;28;20522;-77
2021/05/01 00:06:44;;;;;;;41.10;31.90;;;8.30;99.90;;;;;;5054852;28;20217;-79
2021/05/01 00:09:09;;;;;;;38.23;30.67;;;8.20;99.90;;;;;;5056104;28;20198;-78
2021/05/01 00:11:35;;;;;;;43.27;31.50;;;8.10;99.90;;;;;;5056216;28;20673;-80
2021/05/01 00:14:01;;;;;;;44.07;30.87;;;8.10;99.90;;;;;;5056061;28;20195;-79
2021/05/01 00:16:27;;;;;;;43.90;31.87;;;8.00;99.90;;;;;;5054526;28;20607;-79
2021/05/01 00:18:54;;;;;;;43.22;32.60;;;8.00;99.90;;;;;;5054817;28;20177;-78
2021/05/01 00:21:20;;;;;;;46.17;31.80;;;8.00;99.90;;;;;;5056020;28;20205;-80
2021/05/01 00:23:46;;;;;;;47.10;33.90;;;7.90;99.90;;;;;;5054592;28;20664;-80
2021/05/01 00:26:12;;;;;;;51.72;33.20;;;7.80;99.90;;;;;;5054415;28;20259;-78
2021/05/01 00:28:38;;;;;;;44.40;34.17;;;7.70;99.90;;;;;;5055947;28;20201;-80
2021/05/01 00:31:04;;;;;;;44.70;32.80;;;7.70;99.90;;;;;;5055478;28;20466;-78
2021/05/01 00:33:30;;;;;;;44.40;32.30;;;7.60;99.90;;;;;;5055955;28;20169;-79
2021/05/01 00:35:55;;;;;;;42.93;31.17;;;7.60;99.90;;;;;;5055420;28;20428;-79
2021/05/01 00:38:21;;;;;;;43.23;33.20;;;7.40;99.90;;;;;;5055705;28;20227;-77
2021/05/01 00:40:47;;;;;;;41.40;31.50;;;7.30;99.90;;;;;;5055564;28;20173;-80
2021/05/01 00:43:12;;;;;;;42.40;32.20;;;7.20;99.90;;;;;;5054222;28;20187;-78
2021/05/01 00:45:38;;;;;;;44.70;33.83;;;7.30;99.90;;;;;;5055304;28;20634;-80
2021/05/01 00:48:04;;;;;;;43.40;33.40;;;7.30;99.90;;;;;;5054034;28;20751;-80
2021/05/01 00:50:30;;;;;;;45.30;33.28;;;7.40;99.90;;;;;;5054247;28;20177;-78
2021/05/01 00:52:56;;;;;;;47.60;35.33;;;7.40;99.90;;;;;;5054191;28;20173;-80
2021/05/01 00:55:22;;;;;;;47.27;34.73;;;7.30;99.90;;;;;;5055153;28;20420;-80
2021/05/01 00:57:48;;;;;;;45.15;30.73;;;7.40;99.90;;;;;;5055215;28;20404;-79
2021/05/01 01:03:00;;;;;;;45.90;33.72;;;7.30;99.90;;;;;;5023998;28;20181;-80
2021/05/01 01:05:26;;;;;;;48.00;34.93;;;7.30;99.90;;;;;;5053710;28;20184;-80
2021/05/01 01:07:52;;;;;;;42.40;34.50;;;7.30;99.90;;;;;;5055111;28;20176;-80
2021/05/01 01:10:18;;;;;;;49.20;34.87;;;7.30;99.90;;;;;;5055021;28;20169;-79
2021/05/01 01:12:43;;;;;;;48.67;36.07;;;7.40;99.90;;;;;;5055142;28;20758;-79
2021/05/01 01:15:10;;;;;;;47.60;33.30;;;7.40;99.90;;;;;;5036796;28;20431;-80
2021/05/01 01:17:36;;;;;;;53.90;37.75;;;7.30;99.90;;;;;;5054862;28;20185;-79
2021/05/01 01:20:04;;;;;;;54.88;36.28;;;7.30;99.90;;;;;;5055107;28;20587;-79
2021/05/01 01:22:29;;;;;;;49.05;35.53;;;7.20;99.90;;;;;;5054685;28;20648;-80
2021/05/01 01:24:58;;;;;;;45.50;34.80;;;7.20;99.90;;;;;;5055037;28;20178;-80
2021/05/01 01:27:23;;;;;;;53.50;38.42;;;7.00;99.90;;;;;;5054459;28;20541;-78
2021/05/01 01:29:49;;;;;;;54.90;38.40;;;6.90;99.90;;;;;;5054590;28;20292;-80
2021/05/01 01:32:15;;;;;;;53.90;37.73;;;7.00;99.90;;;;;;5053403;28;20174;-80
2021/05/01 01:34:42;;;;;;;56.53;39.67;;;6.90;99.90;;;;;;5053105;28;20181;-78
2021/05/01 01:37:09;;;;;;;50.88;36.90;;;6.80;99.90;;;;;;5054533;28;20683;-81
2021/05/01 01:39:36;;;;;;;57.70;37.70;;;6.70;99.90;;;;;;5054664;28;20184;-79
2021/05/01 01:42:01;;;;;;;53.40;36.90;;;6.70;99.90;;;;;;5054546;28;20230;-80
2021/05/01 01:44:27;;;;;;;59.10;39.27;;;6.60;99.90;;;;;;5053603;28;20569;-81
2021/05/01 01:46:53;;;;;;;49.80;36.73;;;6.50;99.90;;;;;;5054015;28;20217;-81
2021/05/01 01:49:18;;;;;;;55.07;38.70;;;6.50;99.90;;;;;;5054295;28;20267;-80
2021/05/01 01:51:44;;;;;;;53.23;38.37;;;6.50;99.90;;;;;;5054269;28;20248;-80
2021/05/01 01:54:09;;;;;;;62.10;38.87;;;6.40;99.90;;;;;;5052960;28;20694;-81
2021/05/01 01:56:38;;;;;;;52.93;38.40;;;6.40;99.90;;;;;;5053947;28;20199;-79
2021/05/01 01:59:07;;;;;;;55.15;39.10;;;6.10;99.90;;;;;;5054070;28;20182;-78
2021/05/01 02:01:34;;;;;;;58.92;40.10;;;6.00;99.90;;;;;;5036215;28;20186;-78
2021/05/01 02:04:00;;;;;;;59.97;42.00;;;5.90;99.90;;;;;;5054117;28;20176;-78
2021/05/01 02:06:25;;;;;;;64.10;41.08;;;5.80;99.90;;;;;;5052562;28;20643;-80
2021/05/01 02:08:51;;;;;;;60.77;42.43;;;5.90;99.90;;;;;;5053878;28;20289;-78
2021/05/01 02:11:17;;;;;;;65.60;41.97;;;5.90;99.90;;;;;;5052654;28;20223;-78
2021/05/01 02:13:43;;;;;;;59.38;40.22;;;5.90;99.90;;;;;;5054024;28;20223;-79
2021/05/01 02:16:09;;;;;;;60.08;42.10;;;6.00;99.90;;;;;;5053664;28;20185;-79
2021/05/01 02:18:35;;;;;;;68.20;42.73;;;6.00;99.90;;;;;;5053108;28;20494;-79
2021/05/01 02:21:01;;;;;;;58.00;40.90;;;5.80;99.90;;;;;;5053714;28;20428;-80
2021/05/01 02:23:26;;;;;;;57.90;40.83;;;5.80;99.90;;;;;;5053714;28;20176;-80
2021/05/01 02:25:52;;;;;;;61.20;42.60;;;5.90;99.90;;;;;;5051878;28;20455;-78
2021/05/01 02:28:18;;;;;;;64.47;43.17;;;5.90;99.90;;;;;;5053448;28;20193;-79
2021/05/01 02:30:46;;;;;;;60.92;39.28;;;5.70;99.90;;;;;;5053556;28;20169;-78
2021/05/01 02:33:12;;;;;;;59.70;40.60;;;5.70;99.90;;;;;;5052626;28;20169;-78
2021/05/01 02:35:40;;;;;;;57.08;40.83;;;5.60;99.90;;;;;;5052116;28;20177;-79
2021/05/01 02:38:07;;;;;;;59.38;39.00;;;5.60;99.90;;;;;;5053678;28;20173;-81
2021/05/01 02:40:33;;;;;;;57.63;38.60;;;5.50;99.90;;;;;;5053540;28;20570;-80
2021/05/01 02:43:01;;;;;;;59.63;39.23;;;5.50;99.90;;;;;;5052174;28;20177;-80
2021/05/01 02:45:30;;;;;;;57.55;39.35;;;5.50;99.90;;;;;;5051952;28;20844;-79
2021/05/01 02:47:56;;;;;;;62.88;39.97;;;5.50;99.90;;;;;;5052177;28;20189;-79
2021/05/01 02:50:21;;;;;;;59.70;40.20;;;5.60;99.90;;;;;;5053255;28;20571;-80
2021/05/01 02:52:47;;;;;;;60.13;39.40;;;5.60;99.90;;;;;;5052101;28;20174;-79
2021/05/01 02:55:14;;;;;;;67.83;43.40;;;5.60;99.90;;;;;;5051757;28;20268;-79
2021/05/01 02:57:40;;;;;;;56.67;40.20;;;5.60;99.90;;;;;;5053365;28;20189;-78
2021/05/01 03:00:12;;;;;;;57.03;40.50;;;5.60;99.90;;;;;;5053370;28;20173;-80
2021/05/01 03:02:38;;;;;;;67.80;42.00;;;5.70;99.90;;;;;;5053198;28;20492;-80
2021/05/01 03:05:05;;;;;;;61.00;40.33;;;5.70;99.90;;;;;;5051698;28;20204;-80
2021/05/01 03:07:31;;;;;;;63.60;42.15;;;5.80;99.90;;;;;;5052952;28;20435;-80
2021/05/01 03:09:56;;;;;;;64.10;41.00;;;5.70;99.90;;;;;;5053068;28;20291;-80
2021/05/01 03:12:22;;;;;;;63.27;40.47;;;5.80;99.90;;;;;;5051784;28;20177;-80
2021/05/01 03:14:47;;;;;;;64.20;41.70;;;5.80;99.90;;;;;;5052927;28;20169;-79
2021/05/01 03:17:14;;;;;;;60.77;42.47;;;6.00;99.90;;;;;;5052952;28;20234;-81
2021/05/01 03:19:40;;;;;;;59.50;42.70;;;6.00;99.90;;;;;;5052996;28;20173;-80
2021/05/01 03:22:06;;;;;;;66.43;42.35;;;6.00;99.90;;;;;;5053183;28;20280;-78
2021/05/01 03:24:33;;;;;;;62.75;43.15;;;6.00;99.90;;;;;;5051783;28;20276;-78
2021/05/01 03:26:59;;;;;;;64.47;42.72;;;6.00;99.90;;;;;;5053194;28;20274;-80
2021/05/01 03:29:25;;;;;;;61.90;41.70;;;6.00;99.90;;;;;;5035096;28;20220;-80
2021/05/01 03:31:50;;;;;;;58.70;40.30;;;6.00;99.90;;;;;;5051648;28;20247;-80
2021/05/01 03:34:16;;;;;;;62.10;41.33;;;6.00;99.90;;;;;;5052905;28;20341;-79
2021/05/01 03:36:42;;;;;;;59.50;42.17;;;6.00;99.90;;;;;;5052854;28;20225;-78
2021/05/01 03:39:07;;;;;;;62.97;41.03;;;6.10;99.90;;;;;;5035045;28;20272;-78
2021/05/01 03:41:33;;;;;;;60.97;42.17;;;6.20;99.90;;;;;;5052874;28;20232;-79
2021/05/01 03:43:59;;;;;;;54.13;39.67;;;6.20;99.90;;;;;;5053131;28;20248;-80
2021/05/01 03:46:24;;;;;;;60.07;41.60;;;6.20;99.90;;;;;;5052714;28;20231;-78
2021/05/01 03:48:50;;;;;;;66.67;41.23;;;6.20;99.90;;;;;;5052856;28;20246;-80
2021/05/01 03:51:16;;;;;;;61.00;41.57;;;6.20;99.90;;;;;;5052788;28;20173;-79
2021/05/01 03:53:41;;;;;;;59.30;40.80;;;6.20;99.90;;;;;;5052698;28;20504;-79
2021/05/01 03:56:07;;;;;;;61.03;42.00;;;6.20;99.90;;;;;;5052627;28;20189;-77
2021/05/01 03:58:33;;;;;;;59.97;41.30;;;6.20;99.90;;;;;;5051388;28;20181;-77
2021/05/01 04:00:59;;;;;;;59.53;40.53;;;6.40;99.90;;;;;;5052651;28;20577;-80
2021/05/01 04:03:24;;;;;;;63.50;41.22;;;6.40;99.90;;;;;;5052596;28;20626;-78
2021/05/01 04:05:50;;;;;;;63.77;42.00;;;6.50;99.90;;;;;;5051030;28;20213;-77
2021/05/01 04:08:15;;;;;;;59.10;40.10;;;6.40;99.90;;;;;;5054833;28;20201;-80
2021/05/01 04:10:41;;;;;;;59.33;38.57;;;6.30;99.90;;;;;;5056273;28;20169;-79
2021/05/01 04:13:06;;;;;;;57.67;42.07;;;6.20;99.90;;;;;;5056129;28;20650;-79
2021/05/01 04:15:32;;;;;;;61.83;40.00;;;6.20;99.90;;;;;;5055463;28;20303;-80
2021/05/01 04:17:58;;;;;;;58.67;41.00;;;6.30;99.90;;;;;;5055816;28;20181;-80
2021/05/01 04:20:23;;;;;;;66.07;41.90;;;6.40;99.90;;;;;;5055892;28;20204;-80
2021/05/01 04:22:49;;;;;;;54.22;40.42;;;6.40;99.90;;;;;;5054991;28;20247;-77
2021/05/01 04:25:15;;;;;;;57.20;40.77;;;6.50;99.90;;;;;;5055765;28;20166;-78
2021/05/01 04:27:41;;;;;;;64.33;42.00;;;6.40;99.90;;;;;;5054498;28;20195;-79
2021/05/01 04:30:09;;;;;;;58.90;42.53;;;6.50;99.90;;;;;;5055644;28;20534;-80
2021/05/01 04:32:35;;;;;;;63.13;42.28;;;6.50;99.90;;;;;;5055686;28;20180;-80
2021/05/01 04:35:01;;;;;;;60.90;44.35;;;6.50;99.90;;;;;;5054232;28;20174;-79
2021/05/01 04:37:26;;;;;;;57.58;42.70;;;6.60;99.90;;;;;;5055547;28;20185;-78
2021/05/01 04:39:52;;;;;;;63.07;42.50;;;6.70;99.90;;;;;;5054508;28;20657;-80
2021/05/01 04:42:18;;;;;;;68.83;43.13;;;6.70;99.90;;;;;;5054235;28;20181;-79
2021/05/01 04:44:43;;;;;;;62.43;41.80;;;6.70;99.90;;;;;;5055613;28;20579;-80
2021/05/01 04:47:10;;;;;;;67.20;44.10;;;6.80;99.90;;;;;;5054109;28;20303;-79
2021/05/01 04:49:36;;;;;;;63.78;40.70;;;6.80;99.90;;;;;;5055286;28;20193;-79
2021/05/01 04:52:03;;;;;;;63.60;41.25;;;6.70;99.90;;;;;;5055332;28;20633;-81
2021/05/01 04:54:29;;;;;;;57.13;40.65;;;6.70;99.90;;;;;;5054115;28;20230;-80
2021/05/01 04:56:54;;;;;;;64.57;43.43;;;6.50;99.90;;;;;;5055189;28;20263;-81
2021/05/01 04:59:20;;;;;;;62.27;42.33;;;6.40;99.90;;;;;;5055252;28;20178;-79
2021/05/01 05:01:46;;;;;;;61.87;41.73;;;6.50;99.90;;;;;;5054028;28;20416;-79
2021/05/01 05:04:11;;;;;;;56.87;39.40;;;6.50;99.90;;;;;;5053952;28;20513;-81
2021/05/01 05:06:37;;;;;;;60.00;40.43;;;6.50;99.90;;;;;;5036368;28;20232;-78
2021/05/01 05:09:03;;;;;;;56.03;40.20;;;6.60;99.90;;;;;;5054932;28;20197;-79
2021/05/01 05:11:29;;;;;;;59.90;42.15;;;6.60;99.90;;;;;;5055016;28;20220;-79
2021/05/01 05:13:55;;;;;;;55.13;40.67;;;6.50;99.90;;;;;;5054962;28;20197;-79
2021/05/01 05:16:21;;;;;;;60.83;39.43;;;6.50;99.90;;;;;;5053336;28;20658;-78
2021/05/01 05:18:46;;;;;;;58.37;39.50;;;6.50;99.90;;;;;;5052535;28;20246;-80
2021/05/01 05:21:12;;;;;;;61.50;41.90;;;6.50;99.90;;;;;;5053657;28;20181;-79
2021/05/01 05:23:38;;;;;;;54.90;40.10;;;6.60;99.90;;;;;;5054868;28;20205;-80
2021/05/01 05:26:04;;;;;;;61.83;41.50;;;6.70;99.90;;;;;;5053469;28;20568;-79
2021/05/01 05:28:29;;;;;;;57.73;39.97;;;6.80;99.90;;;;;;5053598;28;20225;-77
2021/05/01 05:30:55;;;;;;;67.70;43.37;;;6.80;99.90;;;;;;5054570;28;20508;-79
2021/05/01 05:33:21;;;;;;;64.77;43.33;;;6.80;99.90;;;;;;5054574;28;20165;-78
2021/05/01 05:35:46;;;;;;;63.73;43.10;;;6.80;99.90;;;;;;5053352;28;20193;-80
2021/05/01 05:38:12;;;;;;;63.23;43.00;;;6.90;99.90;;;;;;5053483;28;20583;-78
2021/05/01 05:40:41;;;;;;;62.67;44.00;;;6.80;99.90;;;;;;5054464;28;20165;-80
2021/05/01 05:43:07;;;;;;;61.88;41.80;;;6.70;99.90;;;;;;5054454;28;20172;-79
2021/05/01 05:45:33;;;;;;;62.73;44.20;;;6.70;99.90;;;;;;5053983;28;20177;-77
2021/05/01 05:47:59;;;;;;;67.60;43.97;;;6.80;99.90;;;;;;5053131;28;20558;-79
2021/05/01 05:50:25;;;;;;;62.13;42.90;;;6.90;99.90;;;;;;5052951;28;20606;-80
2021/05/01 05:52:50;;;;;;;69.30;45.63;;;6.90;99.90;;;;;;5036761;28;20420;-79
2021/05/01 05:55:16;;;;;;;62.03;44.70;;;6.90;99.90;;;;;;5054156;28;20486;-78
2021/05/01 05:57:53;;;;;;;70.80;45.60;;;7.00;99.90;;;;;;5054432;28;20204;-80
2021/05/01 06:00:21;;;;;;;68.82;45.28;;;7.10;99.90;;;;;;5054031;28;20434;-80
2021/05/01 06:02:50;;;;;;;69.93;46.17;;;7.10;99.90;;;;;;5054019;28;20691;-78
2021/05/01 06:05:38;;;;;;;68.00;43.05;;;7.20;99.90;;;;;;5036413;28;20235;-77
2021/05/01 06:08:05;;;;;;;57.90;40.28;;;6.90;99.90;;;;;;5054080;28;20516;-80
2021/05/01 06:10:32;;;;;;;60.42;40.92;;;7.10;99.90;;;;;;5052947;28;20512;-78
2021/05/01 06:13:00;;;;;;;68.07;46.45;;;7.00;99.90;;;;;;5053900;28;20181;-78
2021/05/01 06:15:26;;;;;;;55.97;41.33;;;6.90;99.90;;;;;;5052443;28;20502;-79
2021/05/01 06:17:53;;;;;;;63.80;42.10;;;6.90;99.90;;;;;;5052639;28;20184;-79
2021/05/01 06:20:19;;;;;;;70.15;46.13;;;6.80;99.90;;;;;;5052456;28;20420;-79
2021/05/01 06:22:49;;;;;;;60.35;44.88;;;6.80;99.90;;;;;;5052372;28;20177;-79
2021/05/01 06:25:16;;;;;;;61.85;45.05;;;7.00;99.90;;;;;;5053896;28;20524;-78
2021/05/01 06:27:42;;;;;;;62.15;41.78;;;7.10;99.90;;;;;;5053633;28;20202;-78
2021/05/01 06:30:10;;;;;;;64.60;41.03;;;6.90;99.90;;;;;;5053175;28;20209;-78
2021/05/01 06:32:37;;;;;;;54.17;38.28;;;7.00;99.90;;;;;;5053278;28;20189;-78
2021/05/01 06:35:04;;;;;;;55.65;39.88;;;6.90;99.90;;;;;;5053191;28;20248;-78
2021/05/01 06:37:30;;;;;;;56.50;39.53;;;7.10;99.90;;;;;;5053336;28;20189;-76
2021/05/01 06:40:05;;;;;;;59.97;41.10;;;7.20;99.90;;;;;;5053513;28;20265;-78
2021/05/01 06:42:38;;;;;;;53.03;37.63;;;7.30;99.90;;;;;;5053463;28;20196;-79
2021/05/01 06:45:12;;;;;;;49.15;33.88;;;7.30;99.90;;;;;;5052219;28;20189;-78
2021/05/01 06:47:51;;;;;;;49.63;35.17;;;7.40;99.90;;;;;;5053082;28;20296;-79
2021/05/01 06:50:20;;;;;;;45.55;31.08;;;7.50;99.90;;;;;;5053257;28;20188;-81
2021/05/01 06:52:46;;;;;;;45.42;30.17;;;7.60;99.90;;;;;;5053339;28;20169;-77
2021/05/01 06:55:14;;;;;;;39.20;29.05;;;7.50;99.90;;;;;;5053094;28;20260;-77
2021/05/01 06:57:44;;;;;;;37.28;27.77;;;7.50;99.90;;;;;;5053181;28;20181;-78
2021/05/01 07:00:10;;;;;;;40.33;28.52;;;7.50;99.90;;;;;;5052458;28;20528;-79
2021/05/01 07:02:41;;;;;;;35.58;28.27;;;7.50;99.90;;;;;;5053321;28;20212;-78
2021/05/01 07:05:09;;;;;;;37.65;28.83;;;7.60;99.90;;;;;;5051715;28;20174;-78
2021/05/01 07:07:35;;;;;;;41.92;29.75;;;7.50;99.90;;;;;;5053089;28;20243;-80
2021/05/01 07:10:05;;;;;;;35.60;26.63;;;7.60;99.90;;;;;;5053083;28;20280;-80
2021/05/01 07:12:31;;;;;;;32.03;21.98;;;7.40;99.90;;;;;;5053002;28;20816;-81
2021/05/01 07:15:05;;;;;;;37.60;25.50;;;7.50;99.90;;;;;;5051499;28;20170;-79
2021/05/01 07:17:31;;;;;;;34.88;23.65;;;7.70;99.90;;;;;;5052865;28;20189;-79
2021/05/01 07:20:02;;;;;;;32.03;24.20;;;8.10;99.90;;;;;;5053007;28;20222;-77
2021/05/01 07:22:29;;;;;;;30.95;24.35;;;8.20;99.90;;;;;;5052958;28;20606;-78
2021/05/01 07:24:55;;;;;;;27.00;20.83;;;8.20;99.90;;;;;;5052750;28;20173;-79
2021/05/01 07:27:33;;;;;;;29.38;20.63;;;8.10;99.90;;;;;;5052808;28;20189;-79
2021/05/01 07:30:04;;;;;;;23.17;19.65;;;8.00;99.90;;;;;;5053158;28;20263;-79
2021/05/01 07:32:33;;;;;;;28.42;20.50;;;8.00;99.90;;;;;;5052790;28;20162;-79
2021/05/01 07:35:06;;;;;;;27.38;21.30;;;8.00;99.90;;;;;;5052598;28;20568;-80
2021/05/01 07:37:34;;;;;;;28.17;19.98;;;8.30;99.90;;;;;;5052886;28;20303;-78
2021/05/01 07:40:03;;;;;;;29.90;21.95;;;8.30;99.90;;;;;;5052912;28;20185;-78
2021/05/01 07:42:36;;;;;;;28.58;22.05;;;8.40;99.90;;;;;;5055622;28;20176;-77
2021/05/01 07:45:02;;;;;;;29.73;21.90;;;8.40;99.90;;;;;;5055175;28;20244;-77
2021/05/01 07:47:30;;;;;;;24.38;20.45;;;8.60;99.90;;;;;;5056330;28;20305;-80
2021/05/01 07:49:56;;;;;;;27.27;21.45;;;8.80;99.90;;;;;;5056541;28;20251;-78
2021/05/01 07:52:22;;;;;;;27.67;21.83;;;8.80;99.90;;;;;;5055204;28;20178;-81
2021/05/01 07:54:48;;;;;;;31.23;21.67;;;8.90;99.90;;;;;;5054882;28;20252;-79
2021/05/01 07:57:13;;;;;;;24.60;18.80;;;8.90;99.90;;;;;;5056229;28;20284;-78
2021/05/01 07:59:39;;;;;;;26.80;21.00;;;9.10;99.90;;;;;;5021832;28;20231;-78
2021/05/01 08:02:05;;;;;;;24.53;20.27;;;9.20;99.90;;;;;;5038707;28;20183;-77
2021/05/01 08:04:32;;;;;;;33.47;24.65;;;9.40;99.90;;;;;;5055949;28;20186;-78
2021/05/01 08:06:58;;;;;;;27.63;20.67;;;9.10;99.90;;;;;;5056087;28;20197;-79
2021/05/01 08:09:24;;;;;;;27.45;21.92;;;8.90;99.90;;;;;;5054602;28;20189;-79
2021/05/01 08:11:49;;;;;;;25.93;19.87;;;9.20;99.90;;;;;;5056152;28;20180;-79
2021/05/01 08:14:15;;;;;;;36.23;23.17;;;9.20;99.90;;;;;;5056237;28;20170;-78
2021/05/01 08:16:40;;;;;;;30.07;21.60;;;9.50;99.90;;;;;;5055516;28;20189;-77
2021/05/01 08:19:06;;;;;;;30.70;22.13;;;9.40;99.90;;;;;;5055862;28;20185;-77
2021/05/01 08:21:35;;;;;;;24.63;19.10;;;9.90;99.90;;;;;;5055784;28;20181;-77
2021/05/01 08:24:01;;;;;;;31.10;22.23;;;9.50;99.90;;;;;;5055847;28;20247;-78
2021/05/01 08:26:27;;;;;;;25.40;21.43;;;9.60;99.90;;;;;;5055656;28;20395;-77
2021/05/01 08:28:56;;;;;;;25.93;19.70;;;9.60;99.90;;;;;;5054754;28;20441;-81
2021/05/01 08:31:22;;;;;;;26.60;20.00;;;9.60;99.90;;;;;;5055795;28;20454;-79
2021/05/01 08:33:48;;;;;;;27.00;19.53;;;9.80;99.90;;;;;;5055698;28;20892;-80
2021/05/01 08:36:14;;;;;;;31.03;22.50;;;9.20;99.90;;;;;;5053958;28;20189;-80
2021/05/01 08:38:40;;;;;;;23.17;19.80;;;9.50;99.90;;;;;;5055631;28;20408;-81
2021/05/01 08:41:07;;;;;;;28.50;18.67;;;9.90;99.90;;;;;;5054208;28;20184;-82
2021/05/01 08:43:33;;;;;;;28.00;21.50;;;9.90;99.90;;;;;;5054152;28;20416;-81
2021/05/01 08:45:59;;;;;;;29.50;21.60;;;9.80;99.90;;;;;;5054903;28;20790;-80
2021/05/01 08:48:26;;;;;;;30.93;23.90;;;9.80;99.90;;;;;;5055388;28;20280;-82
2021/05/01 08:50:59;;;;;;;28.00;21.00;;;10.00;99.90;;;;;;5055581;28;20383;-82
2021/05/01 08:53:27;;;;;;;29.70;20.50;;;9.90;99.90;;;;;;5055529;28;20394;-83
2021/05/01 08:57:00;;;;;;;;;;;;;;;;;;;;;
2021/05/01 08:59:51;;;;;;;31.83;21.67;;;9.80;99.90;;;;;;4954387;29;20403;-79
2021/05/01 09:05:45;;;;;;;23.17;18.43;;;10.30;99.90;;;;;;5009239;28;20433;-80
2021/05/01 09:08:13;;;;;;;22.77;18.47;;;10.60;99.90;;;;;;5013040;28;20410;-79
2021/05/01 09:10:52;;;;;;;27.17;19.70;;;10.70;99.90;;;;;;5019376;28;20426;-79
2021/05/01 09:16:42;;;;;;;23.00;20.37;;;11.70;99.90;;;;;;5034398;28;20406;-81
2021/05/01 09:19:29;;;;;;;26.80;20.90;;;12.00;99.90;;;;;;5035147;28;20407;-81
2021/05/01 09:22:08;;;;;;;21.27;17.20;;;11.60;99.90;;;;;;5035009;28;20379;-81
2021/05/01 09:24:35;;;;;;;27.77;19.23;;;10.80;99.90;;;;;;5033220;28;20415;-80
2021/05/01 09:27:07;;;;;;;20.90;18.57;;;11.30;99.90;;;;;;5033597;28;20441;-81
2021/05/01 09:29:39;;;;;;;25.13;19.27;;;11.00;99.90;;;;;;5034615;28;20452;-80
2021/05/01 09:32:21;;;;;;;22.20;17.63;;;11.10;99.90;;;;;;5034673;28;20391;-81
2021/05/01 09:34:51;;;;;;;28.30;19.17;;;10.70;99.90;;;;;;5032902;28;20424;-79
2021/05/01 09:37:18;;;;;;;19.77;16.90;;;10.90;99.90;;;;;;5034803;28;20814;-79
2021/05/01 09:39:53;;;;;;;22.93;17.60;;;11.10;99.90;;;;;;5033726;28;20467;-80
2021/05/01 09:42:20;;;;;;;23.67;17.03;;;11.20;99.90;;;;;;5033426;28;20973;-79
2021/05/01 09:44:48;;;;;;;19.77;16.10;;;11.10;99.90;;;;;;5034475;28;20424;-80
2021/05/01 09:47:16;;;;;;;24.13;17.37;;;11.30;99.90;;;;;;5017434;28;20514;-81
2021/05/01 09:49:46;;;;;;;19.63;15.27;;;11.80;99.90;;;;;;5016720;28;20957;-80
2021/05/01 09:52:21;;;;;;;18.53;13.97;;;11.70;99.90;;;;;;5034305;28;20495;-80
2021/05/01 09:54:50;;;;;;;20.93;16.50;;;11.70;99.90;;;;;;5034082;28;20400;-80
2021/05/01 09:57:19;;;;;;;21.83;17.17;;;12.30;99.90;;;;;;5033021;28;20446;-80
2021/05/01 09:59:55;;;;;;;14.73;13.23;;;12.40;99.90;;;;;;5033205;28;20424;-81
2021/05/01 10:02:34;;;;;;;20.47;15.60;;;12.60;99.90;;;;;;5032879;28;20413;-81
2021/05/01 10:05:12;;;;;;;15.43;12.93;;;11.80;99.90;;;;;;5032059;28;20852;-80
2021/05/01 10:07:41;;;;;;;15.90;14.20;;;12.50;99.90;;;;;;5034107;28;20433;-84
2021/05/01 10:10:08;;;;;;;16.13;14.40;;;12.20;99.90;;;;;;5034661;28;20909;-83
2021/05/01 10:12:35;;;;;;;16.90;14.17;;;11.70;99.90;;;;;;5033567;28;20459;-81
2021/05/01 10:15:25;;;;;;;17.10;15.30;;;12.40;99.90;;;;;;5035117;28;20412;-83
2021/05/01 10:17:51;;;;;;;18.43;14.70;;;12.20;99.90;;;;;;5035540;28;20397;-85
2021/05/01 10:20:18;;;;;;;17.20;15.43;;;13.00;99.90;;;;;;5035291;28;20444;-85
2021/05/01 10:22:45;;;;;;;18.70;15.07;;;12.20;99.90;;;;;;5036193;28;20419;-83
2021/05/01 10:25:21;;;;;;;18.03;14.90;;;12.60;99.90;;;;;;5032652;28;20475;-84
2021/05/01 10:27:48;;;;;;;16.80;14.00;;;12.60;99.90;;;;;;5034045;28;20440;-81
2021/05/01 10:33:23;;;;;;;15.03;13.00;;;12.90;99.90;;;;;;5034045;28;20400;-81
2021/05/01 10:36:08;;;;;;;15.20;13.60;;;13.10;99.90;;;;;;5033461;28;20417;-81
2021/05/01 10:38:35;;;;;;;16.13;13.70;;;13.70;99.90;;;;;;5033617;28;20413;-83
2021/05/01 10:41:03;;;;;;;16.07;12.40;;;14.20;99.90;;;;;;5032567;28;20413;-81
2021/05/01 10:43:31;;;;;;;14.00;11.93;;;14.50;99.90;;;;;;5033498;28;20448;-81
2021/05/01 10:46:08;;;;;;;12.13;10.80;;;14.10;99.90;;;;;;5033117;28;20411;-82
2021/05/01 10:48:45;;;;;;;10.10;9.03;;;14.60;99.90;;;;;;5033265;28;20446;-80
2021/05/01 10:51:12;;;;;;;15.87;11.03;;;14.40;99.90;;;;;;5033525;28;20421;-80
2021/05/01 10:53:38;;;;;;;10.70;9.20;;;14.40;99.90;;;;;;5033313;28;20463;-80
2021/05/01 10:56:08;;;;;;;11.13;8.80;;;14.50;99.90;;;;;;5033120;28;20487;-81
2021/05/01 10:58:43;;;;;;;12.57;10.93;;;14.60;99.20;;;;;;5033510;28;20423;-80
2021/05/01 11:01:27;;;;;;;10.43;9.43;;;14.60;99.90;;;;;;5033303;28;20393;-79
2021/05/01 11:03:58;;;;;;;8.10;7.30;;;13.80;99.20;;;;;;5033385;28;20720;-82
2021/05/01 11:06:25;;;;;;;14.30;12.80;;;14.00;97.70;;;;;;5031636;28;21332;-82
2021/05/01 11:09:06;;;;;;;16.23;12.53;;;13.90;99.90;;;;;;5031905;28;20456;-82
2021/05/01 11:11:40;;;;;;;8.80;7.90;;;14.10;99.90;;;;;;5033445;28;20467;-80
2021/05/01 11:14:27;;;;;;;11.30;8.33;;;14.50;97.90;;;;;;5033259;28;20877;-83
2021/05/01 11:17:04;;;;;;;8.83;7.50;;;15.90;97.40;;;;;;5035075;28;20812;-80
2021/05/01 11:19:32;;;;;;;12.50;9.07;;;15.40;96.20;;;;;;5037133;28;20412;-80
2021/05/01 11:21:58;;;;;;;9.63;8.20;;;14.80;97.10;;;;;;5037320;28;20916;-80
2021/05/01 11:24:25;;;;;;;10.77;8.30;;;14.40;95.70;;;;;;5036972;28;20459;-80
2021/05/01 11:26:52;;;;;;;9.80;8.80;;;14.00;95.80;;;;;;5036712;28;20459;-79
2021/05/01 11:29:19;;;;;;;9.77;8.77;;;14.90;96.10;;;;;;5018285;28;20459;-82
2021/05/01 11:31:46;;;;;;;7.00;6.30;;;15.40;96.70;;;;;;5018642;28;20467;-80
2021/05/01 11:34:14;;;;;;;8.73;6.27;;;15.50;91.30;;;;;;5036974;28;20383;-80
2021/05/01 11:36:53;;;;;;;6.83;5.50;;;15.00;91.00;;;;;;5034791;28;20492;-80
2021/05/01 11:39:19;;;;;;;7.03;5.43;;;14.40;92.20;;;;;;5036837;28;20406;-81
2021/05/01 11:41:46;;;;;;;9.83;5.30;;;14.30;87.70;;;;;;5036862;28;20395;-80
2021/05/01 11:44:14;;;;;;;6.40;4.23;;;14.90;90.40;;;;;;5036842;28;20174;-80
2021/05/01 11:46:53;;;;;;;6.67;5.53;;;15.30;87.90;;;;;;5028773;28;20416;-80
2021/05/01 11:49:29;;;;;;;5.73;5.13;;;14.20;88.20;;;;;;5016653;28;20435;-80
2021/05/01 11:52:41;;;;;;;5.97;5.37;;;14.30;90.40;;;;;;5015252;28;20395;-79
2021/05/01 11:55:32;;;;;;;5.47;4.97;;;14.90;90.60;;;;;;5016247;28;20401;-79
2021/05/01 11:58:01;;;;;;;8.13;4.60;;;15.40;88.60;;;;;;5018158;28;20811;-80
2021/05/01 12:00:36;;;;;;;6.17;4.90;;;16.00;86.50;;;;;;5019149;28;20438;-79
2021/05/01 12:03:20;;;;;;;5.50;4.77;;;15.80;82.10;;;;;;5025463;28;20400;-79
2021/05/01 12:05:53;;;;;;;4.30;3.80;;;15.70;81.10;;;;;;5027220;28;20433;-79
2021/05/01 12:08:22;;;;;;;7.53;4.80;;;14.60;83.80;;;;;;5032156;28;20794;-79
2021/05/01 12:10:58;;;;;;;5.93;5.00;;;15.20;85.00;;;;;;5033235;28;20458;-79
2021/05/01 12:13:38;;;;;;;6.00;4.80;;;15.60;88.00;;;;;;5033664;28;20413;-79
2021/05/01 12:16:06;;;;;;;8.00;4.43;;;15.50;82.60;;;;;;5035603;28;20810;-79
2021/05/01 12:18:48;;;;;;;5.10;4.60;;;15.40;82.90;;;;;;5036076;28;20734;-81
2021/05/01 12:21:29;;;;;;;4.30;3.83;;;16.00;77.80;;;;;;5035787;28;20408;-79
2021/05/01 12:23:59;;;;;;;4.93;4.43;;;16.50;77.60;;;;;;5035945;28;20488;-79
2021/05/01 12:26:35;;;;;;;5.37;3.70;;;16.30;74.70;;;;;;5034142;28;20428;-81
2021/05/01 12:29:19;;;;;;;3.57;3.27;;;17.60;75.40;;;;;;5035643;28;20418;-79
2021/05/01 12:31:49;;;;;;;6.77;3.63;;;16.50;72.70;;;;;;5035729;28;20469;-80
2021/05/01 12:34:16;;;;;;;7.63;4.40;;;16.80;74.20;;;;;;5035732;28;20833;-81
2021/05/01 12:36:47;;;;;;;5.73;4.67;;;16.90;76.40;;;;;;5034192;28;20439;-80
2021/05/01 12:39:14;;;;;;;5.30;4.00;;;17.50;73.40;;;;;;5035544;28;20413;-78
2021/05/01 12:41:45;;;;;;;6.40;4.83;;;18.00;73.40;;;;;;5035537;28;20746;-79
2021/05/01 12:44:37;;;;;;;7.00;4.47;;;17.90;73.90;;;;;;5035645;28;20407;-79
2021/05/01 12:47:04;;;;;;;4.30;3.90;;;17.40;70.20;;;;;;5035348;28;20436;-79
2021/05/01 12:49:33;;;;;;;5.63;4.60;;;15.80;70.60;;;;;;5035217;28;20434;-79
2021/05/01 12:52:10;;;;;;;7.47;4.40;;;15.60;73.00;;;;;;5035429;28;20383;-79
2021/05/01 12:54:38;;;;;;;7.87;4.00;;;16.30;74.70;;;;;;5035106;28;20412;-80
2021/05/01 12:57:17;;;;;;;7.00;5.03;;;17.40;73.90;;;;;;5017792;28;20855;-80
2021/05/01 12:59:47;;;;;;;5.30;4.37;;;16.40;68.60;;;;;;5035239;28;20397;-81